Time;durP1;ratioP1;P1;durP2;ratioP2;P2;SDS_P1;SDS_P2;PMS_P1;PMS_P2;Temp;Humidity;BMP_temperature;BMP_pressure;BME280_temperature;BME280_humidity;BME280_pressure;Samples;Min_cycle;Max_cycle;Signal;HPM_P1;HPM_P2
2023/01/17 00:01:14;;;;;;;;;;;;;;;;;;5009176;28;3138;-63
2023/01/17 00:11:54;;;;;;;;;;;;;;;;;;4993206;28;4770;-64
2023/01/17 00:14:20;;;;;;;;;;;;;;;;;;4984517;28;5117;-64
2023/01/17 00:16:45;;;;;;;;;;;;;;;;;;4977765;28;5214;-63
2023/01/17 01:35:57;;;;;;;;;;;;;;;;;;5004760;28;5075;-64
2023/01/17 01:38:24;;;;;;;;;;;;;;;;;;4998695;28;5233;-64
2023/01/17 01:40:51;;;;;;;;;;;;;;;;;;5006506;28;5304;-63
2023/01/17 01:43:17;;;;;;;;;;;;;;;;;;4983687;28;3396;-62
2023/01/17 01:45:47;;;;;;;;;;;;;;;;;;5003112;28;4978;-62
2023/01/17 01:48:36;;;;;;;;;;;;;;;;;;4999664;28;4994;-61
2023/01/17 01:51:08;;;;;;;;;;;;;;;;;;4994607;28;4954;-61
2023/01/17 01:53:34;;;;;;;;;;;;;;;;;;5004404;28;5073;-62
2023/01/17 01:55:59;;;;;;;;;;;;;;;;;;5005684;28;5090;-62
2023/01/17 01:58:26;;;;;;;;;;;;;;;;;;5002081;28;3234;-62
2023/01/17 02:00:51;;;;;;;;;;;;;;;;;;4997701;28;4959;-61
2023/01/17 02:03:18;;;;;;;;;;;;;;;;;;4986662;28;5049;-62
2023/01/17 02:05:43;;;;;;;;;;;;;;;;;;4993083;28;4678;-61
2023/01/17 02:08:26;;;;;;;;;;;;;;;;;;4992844;28;5142;-62
2023/01/17 02:10:52;;;;;;;;;;;;;;;;;;5000372;28;5137;-63
2023/01/17 02:13:18;;;;;;;;;;;;;;;;;;4999184;28;3254;-63
2023/01/17 02:15:46;;;;;;;;;;;;;;;;;;4992081;28;5027;-63
2023/01/17 02:18:14;;;;;;;;;;;;;;;;;;5000757;28;5155;-63
2023/01/17 02:20:40;;;;;;;;;;;;;;;;;;4993210;28;5197;-64
2023/01/17 02:23:08;;;;;;;;;;;;;;;;;;4999215;28;4521;-63
2023/01/17 02:25:52;;;;;;;;;;;;;;;;;;4999703;28;5126;-65
2023/01/17 02:28:26;;;;;;;;;;;;;;;;;;5000102;28;3553;-64
2023/01/17 02:30:56;;;;;;;;;;;;;;;;;;4996319;28;5235;-62
2023/01/17 02:33:21;;;;;;;;;;;;;;;;;;4999738;28;5056;-65
2023/01/17 02:36:15;;;;;;;;;;;;;;;;;;4996815;28;4951;-65
2023/01/17 02:39:03;;;;;;;;;;;;;;;;;;4987130;28;5057;-64
2023/01/17 02:41:28;;;;;;;;;;;;;;;;;;4998470;28;5141;-65
2023/01/17 02:43:54;;;;;;;;;;;;;;;;;;4997995;28;5151;-66
2023/01/17 02:46:19;;;;;;;;;;;;;;;;;;5004476;28;3461;-64
2023/01/17 02:48:44;;;;;;;;;;;;;;;;;;5002424;28;5051;-64
2023/01/17 02:51:27;;;;;;;;;;;;;;;;;;5005591;28;5003;-63
2023/01/17 02:54:09;;;;;;;;;;;;;;;;;;5002286;28;5236;-64
2023/01/17 02:57:13;;;;;;;;;;;;;;;;;;5000742;28;5038;-64
2023/01/17 03:00:04;;;;;;;;;;;;;;;;;;4941217;28;5112;-65
2023/01/17 03:02:34;;;;;;;;;;;;;;;;;;4908476;28;5094;-65
2023/01/17 03:05:01;;;;;;;;;;;;;;;;;;4980609;28;5135;-65
2023/01/17 03:07:26;;;;;;;;;;;;;;;;;;4998526;28;4988;-65
2023/01/17 03:09:53;;;;;;;;;;;;;;;;;;5014516;28;3514;-66
2023/01/17 03:12:19;;;;;;;;;;;;;;;;;;5004154;28;5068;-64
2023/01/17 03:14:44;;;;;;;;;;;;;;;;;;5008765;28;5130;-64
2023/01/17 03:17:09;;;;;;;;;;;;;;;;;;5002941;28;5118;-65
2023/01/17 03:19:34;;;;;;;;;;;;;;;;;;4999172;28;5152;-65
2023/01/17 03:22:00;;;;;;;;;;;;;;;;;;5005693;28;3323;-65
2023/01/17 03:24:25;;;;;;;;;;;;;;;;;;5005529;28;4518;-65
2023/01/17 03:26:50;;;;;;;;;;;;;;;;;;5008484;28;4973;-62
2023/01/17 03:29:15;;;;;;;;;;;;;;;;;;5006870;28;4751;-61
2023/01/17 03:31:41;;;;;;;;;;;;;;;;;;5005863;28;5024;-61
2023/01/17 03:34:06;;;;;;;;;;;;;;;;;;5008615;28;3301;-62
2023/01/17 03:36:31;;;;;;;;;;;;;;;;;;5004933;28;5033;-61
2023/01/17 03:38:56;;;;;;;;;;;;;;;;;;5002817;28;5062;-62
2023/01/17 03:41:22;;;;;;;;;;;;;;;;;;5003508;28;5680;-62
2023/01/17 03:43:47;;;;;;;;;;;;;;;;;;5002927;28;5062;-62
2023/01/17 03:46:22;;;;;;;;;;;;;;;;;;5008276;28;3268;-62
2023/01/17 03:48:47;;;;;;;;;;;;;;;;;;4999267;28;5222;-62
2023/01/17 03:51:13;;;;;;;;;;;;;;;;;;5007111;28;5089;-62
2023/01/17 03:53:38;;;;;;;;;;;;;;;;;;5005786;28;5024;-62
2023/01/17 03:56:04;;;;;;;;;;;;;;;;;;5005941;28;5095;-62
2023/01/17 03:58:29;;;;;;;;;;;;;;;;;;5008710;28;5069;-62
2023/01/17 04:00:54;;;;;;;;;;;;;;;;;;5009481;28;3339;-63
2023/01/17 04:03:19;;;;;;;;;;;;;;;;;;5006659;28;5043;-62
2023/01/17 04:05:45;;;;;;;;;;;;;;;;;;5002280;28;5087;-62
2023/01/17 04:08:10;;;;;;;;;;;;;;;;;;5006280;28;5150;-61
2023/01/17 04:10:35;;;;;;;;;;;;;;;;;;5007083;28;4665;-62
2023/01/17 04:13:00;;;;;;;;;;;;;;;;;;5000510;28;3310;-62
2023/01/17 04:15:26;;;;;;;;;;;;;;;;;;5007754;28;4980;-62
2023/01/17 04:17:51;;;;;;;;;;;;;;;;;;5000682;28;5078;-63
2023/01/17 04:20:35;;;;;;;;;;;;;;;;;;5006945;28;5005;-63
2023/01/17 04:23:00;;;;;;;;;;;;;;;;;;4998928;28;4657;-63
2023/01/17 04:25:26;;;;;;;;;;;;;;;;;;5006358;28;5115;-60
2023/01/17 04:27:52;;;;;;;;;;;;;;;;;;5008691;28;3572;-62
2023/01/17 04:30:17;;;;;;;;;;;;;;;;;;5000597;28;4465;-65
2023/01/17 04:32:42;;;;;;;;;;;;;;;;;;5003241;28;4632;-64
2023/01/17 04:35:08;;;;;;;;;;;;;;;;;;5003898;28;5073;-64
2023/01/17 04:37:33;;;;;;;;;;;;;;;;;;5006481;28;5076;-64
2023/01/17 04:39:59;;;;;;;;;;;;;;;;;;5024224;28;1204;-63
2023/01/17 04:42:24;;;;;;;;;;;;;;;;;;5005929;28;5101;-64
2023/01/17 04:44:49;;;;;;;;;;;;;;;;;;5001063;28;4627;-62
2023/01/17 04:47:14;;;;;;;;;;;;;;;;;;5000405;28;5135;-63
2023/01/17 04:49:40;;;;;;;;;;;;;;;;;;4999669;28;4573;-63
2023/01/17 04:52:05;;;;;;;;;;;;;;;;;;5000554;28;3512;-67
2023/01/17 04:54:30;;;;;;;;;;;;;;;;;;5007830;28;4921;-68
2023/01/17 04:56:55;;;;;;;;;;;;;;;;;;5005183;28;5085;-67
2023/01/17 04:59:20;;;;;;;;;;;;;;;;;;5001970;28;4641;-67
2023/01/17 05:01:47;;;;;;;;;;;;;;;;;;5001091;28;5106;-67
2023/01/17 05:04:12;;;;;;;;;;;;;;;;;;5006891;28;1462;-65
2023/01/17 05:06:37;;;;;;;;;;;;;;;;;;5004241;28;4937;-61
2023/01/17 05:09:03;;;;;;;;;;;;;;;;;;5002112;28;5075;-61
2023/01/17 05:11:28;;;;;;;;;;;;;;;;;;5004936;28;5148;-61
2023/01/17 05:13:53;;;;;;;;;;;;;;;;;;5002489;28;5079;-62
2023/01/17 05:16:19;;;;;;;;;;;;;;;;;;5014624;28;1941;-61
2023/01/17 05:18:44;;;;;;;;;;;;;;;;;;5002889;28;4780;-62
2023/01/17 05:21:09;;;;;;;;;;;;;;;;;;5006712;28;4873;-63
2023/01/17 05:23:34;;;;;;;;;;;;;;;;;;4997168;28;4460;-63
2023/01/17 05:25:59;;;;;;;;;;;;;;;;;;4994848;28;5304;-63
2023/01/17 05:28:25;;;;;;;;;;;;;;;;;;4999259;28;1995;-63
2023/01/17 05:30:50;;;;;;;;;;;;;;;;;;5004594;28;4782;-63
2023/01/17 05:33:15;;;;;;;;;;;;;;;;;;5002304;28;5060;-63
2023/01/17 05:35:41;;;;;;;;;;;;;;;;;;5003266;28;5056;-61
2023/01/17 05:38:06;;;;;;;;;;;;;;;;;;5003866;28;5063;-62
2023/01/17 05:40:31;;;;;;;;;;;;;;;;;;5006637;28;4960;-62
2023/01/17 05:42:57;;;;;;;;;;;;;;;;;;5003385;28;3643;-63
2023/01/17 05:45:23;;;;;;;;;;;;;;;;;;5001648;28;5253;-63
2023/01/17 05:47:49;;;;;;;;;;;;;;;;;;5005179;28;5071;-65
2023/01/17 05:50:19;;;;;;;;;;;;;;;;;;4993208;28;4569;-65
2023/01/17 05:52:47;;;;;;;;;;;;;;;;;;4996496;28;5172;-65
2023/01/17 05:55:13;;;;;;;;;;;;;;;;;;5001747;28;3402;-65
2023/01/17 05:57:38;;;;;;;;;;;;;;;;;;5005233;28;5225;-65
2023/01/17 06:00:03;;;;;;;;;;;;;;;;;;4999778;28;5171;-65
2023/01/17 06:02:29;;;;;;;;;;;;;;;;;;5006010;28;5035;-65
2023/01/17 06:04:54;;;;;;;;;;;;;;;;;;5000614;28;5206;-64
2023/01/17 06:07:19;;;;;;;;;;;;;;;;;;5002935;28;3761;-66
2023/01/17 06:09:44;;;;;;;;;;;;;;;;;;4991092;28;5212;-61
2023/01/17 06:12:10;;;;;;;;;;;;;;;;;;4996616;28;5211;-62
2023/01/17 06:14:35;;;;;;;;;;;;;;;;;;4998337;28;4921;-62
2023/01/17 06:17:00;;;;;;;;;;;;;;;;;;5005733;28;5318;-62
2023/01/17 06:19:26;;;;;;;;;;;;;;;;;;5007127;28;4463;-61
2023/01/17 06:21:51;;;;;;;;;;;;;;;;;;4995586;28;3396;-62
2023/01/17 06:24:16;;;;;;;;;;;;;;;;;;4991457;28;4982;-62
2023/01/17 06:26:45;;;;;;;;;;;;;;;;;;5001928;28;5034;-62
2023/01/17 06:29:10;;;;;;;;;;;;;;;;;;5005129;28;5002;-62
2023/01/17 06:31:35;;;;;;;;;;;;;;;;;;5006143;28;4695;-62
2023/01/17 06:34:02;;;;;;;;;;;;;;;;;;5004177;28;3379;-62
2023/01/17 06:36:27;;;;;;;;;;;;;;;;;;4996995;28;5130;-62
2023/01/17 06:38:52;;;;;;;;;;;;;;;;;;4991621;28;5130;-64
2023/01/17 06:41:18;;;;;;;;;;;;;;;;;;4990624;28;4554;-65
2023/01/17 06:43:43;;;;;;;;;;;;;;;;;;4977040;28;5233;-65
2023/01/17 06:46:08;;;;;;;;;;;;;;;;;;4979845;28;3416;-66
2023/01/17 06:48:33;;;;;;;;;;;;;;;;;;4999333;28;5070;-68
2023/01/17 06:50:59;;;;;;;;;;;;;;;;;;5002001;28;5081;-65
2023/01/17 06:53:24;;;;;;;;;;;;;;;;;;4996831;28;5316;-66
2023/01/17 06:55:49;;;;;;;;;;;;;;;;;;5001066;28;4972;-65
2023/01/17 06:58:15;;;;;;;;;;;;;;;;;;5008172;28;3606;-63
2023/01/17 07:00:40;;;;;;;;;;;;;;;;;;4981564;28;5077;-62
2023/01/17 07:03:06;;;;;;;;;;;;;;;;;;4984575;28;5280;-61
2023/01/17 07:05:31;;;;;;;;;;;;;;;;;;4984495;28;5074;-61
2023/01/17 07:07:56;;;;;;;;;;;;;;;;;;4994545;28;5214;-62
2023/01/17 07:10:22;;;;;;;;;;;;;;;;;;4981672;28;3603;-59
2023/01/17 07:12:47;;;;;;;;;;;;;;;;;;4983580;28;5069;-66
2023/01/17 07:15:12;;;;;;;;;;;;;;;;;;4983104;28;5147;-64
2023/01/17 07:17:38;;;;;;;;;;;;;;;;;;4986145;28;4952;-65
2023/01/17 07:20:03;;;;;;;;;;;;;;;;;;4980847;28;4752;-66
2023/01/17 07:22:28;;;;;;;;;;;;;;;;;;4982233;28;5173;-66
2023/01/17 07:24:57;;;;;;;;;;;;;;;;;;5004178;28;3565;-63
2023/01/17 07:27:23;;;;;;;;;;;;;;;;;;4983886;28;4679;-66
2023/01/17 07:29:48;;;;;;;;;;;;;;;;;;4985530;28;4574;-65
2023/01/17 07:32:13;;;;;;;;;;;;;;;;;;4981448;28;5231;-66
2023/01/17 07:34:39;;;;;;;;;;;;;;;;;;4982313;28;5103;-66
2023/01/17 07:37:05;;;;;;;;;;;;;;;;;;4980540;28;3558;-67
2023/01/17 07:39:30;;;;;;;;;;;;;;;;;;4983763;28;4643;-65
2023/01/17 07:41:55;;;;;;;;;;;;;;;;;;4983360;28;5012;-61
2023/01/17 07:44:20;;;;;;;;;;;;;;;;;;4982115;28;4728;-65
2023/01/17 07:46:46;;;;;;;;;;;;;;;;;;4979604;28;5122;-63
2023/01/17 07:49:11;;;;;;;;;;;;;;;;;;4977618;28;3609;-62
2023/01/17 07:51:36;;;;;;;;;;;;;;;;;;4977446;28;4842;-61
2023/01/17 07:54:01;;;;;;;;;;;;;;;;;;4981187;28;5131;-62
2023/01/17 07:56:27;;;;;;;;;;;;;;;;;;4980344;28;4582;-63
2023/01/17 07:58:52;;;;;;;;;;;;;;;;;;4977062;28;5362;-66
2023/01/17 08:01:17;;;;;;;;;;;;;;;;;;4980322;28;3481;-62
2023/01/17 08:03:42;;;;;;;;;;;;;;;;;;4982916;28;4862;-64
2023/01/17 08:06:11;;;;;;;;;;;;;;;;;;4982834;28;4704;-64
2023/01/17 08:08:36;;;;;;;;;;;;;;;;;;4980882;28;5080;-65
2023/01/17 08:11:01;;;;;;;;;;;;;;;;;;4974868;28;5438;-62
2023/01/17 08:13:26;;;;;;;;;;;;;;;;;;4987148;28;5072;-62
2023/01/17 08:15:53;;;;;;;;;;;;;;;;;;4980245;28;3374;-62
2023/01/17 08:18:18;;;;;;;;;;;;;;;;;;4979917;28;4730;-62
2023/01/17 08:20:43;;;;;;;;;;;;;;;;;;4981470;28;5192;-64
2023/01/17 08:23:09;;;;;;;;;;;;;;;;;;4986799;28;5140;-63
2023/01/17 08:25:34;;;;;;;;;;;;;;;;;;4989472;28;5495;-63
2023/01/17 08:27:59;;;;;;;;;;;;;;;;;;4987478;28;3601;-64
2023/01/17 08:30:25;;;;;;;;;;;;;;;;;;4982037;28;5507;-64
2023/01/17 08:32:50;;;;;;;;;;;;;;;;;;4985957;28;4554;-64
2023/01/17 08:35:15;;;;;;;;;;;;;;;;;;4985635;28;5064;-64
2023/01/17 08:37:41;;;;;;;;;;;;;;;;;;4986841;28;5194;-64
2023/01/17 08:40:06;;;;;;;;;;;;;;;;;;4985065;28;1094;-63
2023/01/17 08:42:38;;;;;;;;;;;;;;;;;;4981429;28;5025;-64
2023/01/17 08:45:04;;;;;;;;;;;;;;;;;;4978475;28;4892;-64
2023/01/17 08:47:29;;;;;;;;;;;;;;;;;;4985557;28;5136;-64
2023/01/17 08:49:57;;;;;;;;;;;;;;;;;;4982728;28;4826;-64
2023/01/17 08:52:23;;;;;;;;;;;;;;;;;;4986144;28;1511;-64
2023/01/17 08:54:48;;;;;;;;;;;;;;;;;;4989066;28;5168;-64
2023/01/17 08:57:13;;;;;;;;;;;;;;;;;;4987871;28;5002;-63
2023/01/17 08:59:38;;;;;;;;;;;;;;;;;;4989224;28;4474;-64
2023/01/17 09:02:13;;;;;;;;;;;;;;;;;;4987907;28;4642;-64
2023/01/17 09:04:38;;;;;;;;;;;;;;;;;;4982089;28;4998;-64
2023/01/17 09:07:06;;;;;;;;;;;;;;;;;;4982055;28;1259;-63
2023/01/17 09:09:31;;;;;;;;;;;;;;;;;;4988552;28;5094;-64
2023/01/17 09:11:56;;;;;;;;;;;;;;;;;;4980564;28;5203;-64
2023/01/17 09:14:21;;;;;;;;;;;;;;;;;;4987154;28;5023;-64
2023/01/17 09:16:47;;;;;;;;;;;;;;;;;;4988834;28;5011;-64
2023/01/17 09:19:12;;;;;;;;;;;;;;;;;;4988983;28;1454;-63
2023/01/17 09:21:38;;;;;;;;;;;;;;;;;;4990829;28;4607;-64
2023/01/17 09:24:03;;;;;;;;;;;;;;;;;;4985779;28;5370;-64
2023/01/17 09:26:28;;;;;;;;;;;;;;;;;;4985769;28;5174;-64
2023/01/17 09:28:54;;;;;;;;;;;;;;;;;;4985002;28;4926;-64
2023/01/17 09:31:22;;;;;;;;;;;;;;;;;;4988901;28;4313;-64
2023/01/17 09:33:47;;;;;;;;;;;;;;;;;;4987175;28;5457;-64
2023/01/17 09:36:13;;;;;;;;;;;;;;;;;;4985530;28;5526;-64
2023/01/17 09:38:38;;;;;;;;;;;;;;;;;;4985941;28;4763;-64
2023/01/17 09:41:14;;;;;;;;;;;;;;;;;;4982451;28;5023;-64
2023/01/17 09:43:40;;;;;;;;;;;;;;;;;;4980245;28;5101;-63
2023/01/17 09:46:10;;;;;;;;;;;;;;;;;;4984489;28;2072;-62
2023/01/17 09:48:36;;;;;;;;;;;;;;;;;;4984267;28;5562;-64
2023/01/17 09:51:12;;;;;;;;;;;;;;;;;;4985317;28;4944;-63
2023/01/17 09:53:37;;;;;;;;;;;;;;;;;;4989913;28;5143;-64
2023/01/17 09:56:04;;;;;;;;;;;;;;;;;;5005545;28;5738;-64
2023/01/17 09:58:47;;;;;;;;;;;;;;;;;;5005537;28;4971;-64
2023/01/17 10:01:17;;;;;;;;;;;;;;;;;;4988350;28;1056;-63
2023/01/17 10:03:55;;;;;;;;;;;;;;;;;;5007169;28;4824;-64
2023/01/17 10:06:35;;;;;;;;;;;;;;;;;;5005759;28;5093;-64
2023/01/17 10:09:03;;;;;;;;;;;;;;;;;;5007298;28;5113;-64
2023/01/17 10:11:41;;;;;;;;;;;;;;;;;;4987641;28;5378;-63
2023/01/17 10:14:19;;;;;;;;;;;;;;;;;;5006611;28;4696;-64
2023/01/17 10:16:51;;;;;;;;;;;;;;;;;;5000266;28;5067;-63
2023/01/17 10:19:19;;;;;;;;;;;;;;;;;;5002316;28;1445;-64
2023/01/17 10:21:44;;;;;;;;;;;;;;;;;;5010158;28;4904;-64
2023/01/17 10:24:15;;;;;;;;;;;;;;;;;;5003475;28;5037;-64
2023/01/17 10:26:41;;;;;;;;;;;;;;;;;;5005886;28;5079;-64
2023/01/17 10:29:08;;;;;;;;;;;;;;;;;;5012374;28;5055;-64
2023/01/17 10:31:34;;;;;;;;;;;;;;;;;;5012565;28;4694;-64
2023/01/17 10:34:02;;;;;;;;;;;;;;;;;;5009489;28;2335;-63
2023/01/17 10:36:33;;;;;;;;;;;;;;;;;;5012560;28;5096;-64
2023/01/17 10:39:03;;;;;;;;;;;;;;;;;;5005774;28;5146;-64
2023/01/17 10:41:36;;;;;;;;;;;;;;;;;;5010022;28;4625;-64
2023/01/17 10:44:20;;;;;;;;;;;;;;;;;;5006906;28;5098;-64
2023/01/17 10:47:00;;;;;;;;;;;;;;;;;;5001163;28;5079;-64
2023/01/17 10:49:25;;;;;;;;;;;;;;;;;;5009350;28;3340;-64
2023/01/17 10:52:00;;;;;;;;;;;;;;;;;;5012333;28;5787;-64
2023/01/17 10:54:28;;;;;;;;;;;;;;;;;;5006971;28;4927;-64
2023/01/17 10:56:53;;;;;;;;;;;;;;;;;;5011297;28;5163;-64
2023/01/17 10:59:25;;;;;;;;;;;;;;;;;;5011901;28;4875;-64
2023/01/17 11:01:50;;;;;;;;;;;;;;;;;;5013308;28;4460;-65
2023/01/17 11:04:29;;;;;;;;;;;;;;;;;;5013108;28;2533;-63
2023/01/17 11:07:13;;;;;;;;;;;;;;;;;;5006695;28;4449;-64
2023/01/17 11:09:45;;;;;;;;;;;;;;;;;;5010306;28;4420;-64
2023/01/17 11:12:19;;;;;;;;;;;;;;;;;;5008056;28;4794;-64
2023/01/17 11:14:57;;;;;;;;;;;;;;;;;;5008860;28;5162;-64
2023/01/17 11:17:22;;;;;;;;;;;;;;;;;;4991329;28;5675;-63
2023/01/17 11:19:50;;;;;;;;;;;;;;;;;;4983961;28;5108;-64
2023/01/17 11:22:15;;;;;;;;;;;;;;;;;;4988929;28;1094;-64
2023/01/17 11:24:41;;;;;;;;;;;;;;;;;;5010451;28;5145;-65
2023/01/17 11:27:06;;;;;;;;;;;;;;;;;;5011958;28;5045;-64
2023/01/17 11:29:36;;;;;;;;;;;;;;;;;;5008175;28;4911;-64
2023/01/17 11:32:20;;;;;;;;;;;;;;;;;;5011946;28;4730;-63
2023/01/17 11:34:55;;;;;;;;;;;;;;;;;;5008160;28;5091;-64
2023/01/17 11:37:22;;;;;;;;;;;;;;;;;;5008158;28;1977;-65
2023/01/17 11:39:48;;;;;;;;;;;;;;;;;;5003960;28;5004;-64
2023/01/17 11:42:32;;;;;;;;;;;;;;;;;;5005359;28;4453;-64
2023/01/17 11:45:11;;;;;;;;;;;;;;;;;;5009525;28;4871;-64
2023/01/17 11:47:36;;;;;;;;;;;;;;;;;;4992019;28;4976;-64
2023/01/17 11:50:02;;;;;;;;;;;;;;;;;;5006896;28;4599;-64
2023/01/17 11:52:33;;;;;;;;;;;;;;;;;;5007165;28;5077;-64
2023/01/17 11:54:58;;;;;;;;;;;;;;;;;;5001505;28;3558;-64
2023/01/17 11:57:25;;;;;;;;;;;;;;;;;;5007146;28;5132;-64
2023/01/17 11:59:54;;;;;;;;;;;;;;;;;;5007823;28;4582;-64
2023/01/17 12:02:32;;;;;;;;;;;;;;;;;;5023612;28;5059;-64
2023/01/17 12:05:17;;;;;;;;;;;;;;;;;;5009525;28;4485;-64
2023/01/17 12:07:48;;;;;;;;;;;;;;;;;;5003316;28;5126;-64
2023/01/17 12:10:19;;;;;;;;;;;;;;;;;;5010208;28;1111;-65
2023/01/17 12:15:44;;;;;;;;;;;;;;;;;;5009457;28;5163;-64
2023/01/17 12:18:19;;;;;;;;;;;;;;;;;;5008928;28;4408;-64
2023/01/17 12:20:50;;;;;;;;;;;;;;;;;;5004286;28;4727;-64
2023/01/17 12:23:15;;;;;;;;;;;;;;;;;;4996621;28;5339;-64
2023/01/17 12:25:53;;;;;;;;;;;;;;;;;;5009915;28;4961;-64
2023/01/17 12:28:37;;;;;;;;;;;;;;;;;;5009344;28;1155;-64
2023/01/17 12:31:05;;;;;;;;;;;;;;;;;;5009086;28;5002;-63
2023/01/17 12:33:46;;;;;;;;;;;;;;;;;;5017906;28;5034;-64
2023/01/17 12:36:18;;;;;;;;;;;;;;;;;;5007708;28;4789;-62
2023/01/17 12:38:43;;;;;;;;;;;;;;;;;;4998286;28;4511;-64
2023/01/17 12:41:10;;;;;;;;;;;;;;;;;;5021625;28;5407;-64
2023/01/17 12:43:36;;;;;;;;;;;;;;;;;;5001567;28;5097;-64
2023/01/17 12:46:20;;;;;;;;;;;;;;;;;;5008194;28;1518;-64
2023/01/17 12:48:46;;;;;;;;;;;;;;;;;;5002661;28;5008;-62
2023/01/17 12:51:17;;;;;;;;;;;;;;;;;;5002187;28;5452;-64
2023/01/17 12:53:46;;;;;;;;;;;;;;;;;;4990705;28;5068;-64
2023/01/17 12:56:14;;;;;;;;;;;;;;;;;;5002644;28;5000;-64
2023/01/17 12:58:40;;;;;;;;;;;;;;;;;;5008120;28;5149;-64
2023/01/17 13:01:25;;;;;;;;;;;;;;;;;;5008025;28;1140;-64
2023/01/17 13:03:50;;;;;;;;;;;;;;;;;;5019725;28;5088;-64
2023/01/17 13:06:21;;;;;;;;;;;;;;;;;;5004813;28;4498;-64
2023/01/17 13:08:47;;;;;;;;;;;;;;;;;;5007854;28;5661;-63
2023/01/17 13:11:26;;;;;;;;;;;;;;;;;;5000877;28;5224;-64
2023/01/17 13:13:54;;;;;;;;;;;;;;;;;;5022185;28;5067;-62
2023/01/17 13:16:28;;;;;;;;;;;;;;;;;;5007173;28;1946;-64
2023/01/17 13:18:53;;;;;;;;;;;;;;;;;;4987745;28;5697;-63
2023/01/17 13:21:29;;;;;;;;;;;;;;;;;;4987959;28;5172;-64
2023/01/17 13:24:00;;;;;;;;;;;;;;;;;;4985905;28;4517;-64
2023/01/17 13:26:44;;;;;;;;;;;;;;;;;;4987669;28;4967;-63
2023/01/17 13:29:28;;;;;;;;;;;;;;;;;;4989180;28;5072;-63
2023/01/17 13:32:03;;;;;;;;;;;;;;;;;;4991202;28;5147;-63
2023/01/17 13:34:31;;;;;;;;;;;;;;;;;;5008302;28;5455;-64
2023/01/17 13:36:57;;;;;;;;;;;;;;;;;;5008157;28;1975;-63
2023/01/17 13:39:26;;;;;;;;;;;;;;;;;;5000483;28;5034;-63
2023/01/17 13:42:13;;;;;;;;;;;;;;;;;;5003403;28;4439;-63
2023/01/17 13:44:38;;;;;;;;;;;;;;;;;;4998808;28;4474;-63
2023/01/17 13:47:16;;;;;;;;;;;;;;;;;;5000568;28;5067;-63
2023/01/17 13:49:46;;;;;;;;;;;;;;;;;;5002444;28;5128;-63
2023/01/17 13:52:17;;;;;;;;;;;;;;;;;;5005368;28;1215;-64
2023/01/17 13:54:47;;;;;;;;;;;;;;;;;;5005974;28;5091;-63
2023/01/17 13:57:24;;;;;;;;;;;;;;;;;;5007683;28;4512;-65
2023/01/17 13:59:50;;;;;;;;;;;;;;;;;;5008339;28;5084;-63
2023/01/17 14:02:41;;;;;;;;;;;;;;;;;;5005275;28;5566;-63
2023/01/17 14:05:22;;;;;;;;;;;;;;;;;;5004858;28;5042;-64
2023/01/17 14:07:51;;;;;;;;;;;;;;;;;;5000946;28;5074;-65
2023/01/17 14:10:35;;;;;;;;;;;;;;;;;;5004803;28;3646;-61
2023/01/17 14:13:00;;;;;;;;;;;;;;;;;;4988721;28;5029;-64
2023/01/17 14:15:28;;;;;;;;;;;;;;;;;;4985749;28;5121;-64
2023/01/17 14:17:57;;;;;;;;;;;;;;;;;;4988253;28;5108;-63
2023/01/17 14:20:26;;;;;;;;;;;;;;;;;;4985568;28;4876;-64
2023/01/17 14:22:55;;;;;;;;;;;;;;;;;;4988110;28;4971;-63
2023/01/17 14:25:23;;;;;;;;;;;;;;;;;;4983327;28;1151;-63
2023/01/17 14:28:09;;;;;;;;;;;;;;;;;;4986698;28;4933;-63
2023/01/17 14:30:35;;;;;;;;;;;;;;;;;;4992546;28;4743;-63
2023/01/17 14:33:00;;;;;;;;;;;;;;;;;;5004865;28;5422;-65
2023/01/17 14:35:30;;;;;;;;;;;;;;;;;;4993745;28;5189;-65
2023/01/17 14:38:01;;;;;;;;;;;;;;;;;;4984682;28;4708;-64
2023/01/17 14:40:29;;;;;;;;;;;;;;;;;;4979907;28;5070;-63
2023/01/17 14:43:02;;;;;;;;;;;;;;;;;;4988330;28;1839;-64
2023/01/17 14:45:28;;;;;;;;;;;;;;;;;;4984971;28;4468;-64
2023/01/17 14:47:53;;;;;;;;;;;;;;;;;;4982673;28;4999;-64
2023/01/17 14:50:25;;;;;;;;;;;;;;;;;;4986279;28;5150;-64
2023/01/17 14:53:07;;;;;;;;;;;;;;;;;;4984784;28;4789;-64
2023/01/17 14:55:33;;;;;;;;;;;;;;;;;;4987197;28;5133;-64
2023/01/17 14:57:58;;;;;;;;;;;;;;;;;;4987056;28;1911;-64
2023/01/17 15:00:24;;;;;;;;;;;;;;;;;;4986599;28;4633;-64
2023/01/17 15:02:49;;;;;;;;;;;;;;;;;;4980318;28;5374;-64
2023/01/17 15:05:15;;;;;;;;;;;;;;;;;;4987455;28;4588;-64
2023/01/17 15:07:41;;;;;;;;;;;;;;;;;;4985425;28;5084;-64
2023/01/17 15:10:11;;;;;;;;;;;;;;;;;;4972913;28;3510;-63
2023/01/17 15:12:37;;;;;;;;;;;;;;;;;;4980284;28;5180;-61
2023/01/17 15:15:03;;;;;;;;;;;;;;;;;;4987139;28;5149;-62
2023/01/17 15:17:28;;;;;;;;;;;;;;;;;;4989595;28;4656;-61
2023/01/17 15:19:54;;;;;;;;;;;;;;;;;;4986310;28;4926;-61
2023/01/17 15:22:20;;;;;;;;;;;;;;;;;;4987537;28;3411;-62
2023/01/17 15:24:45;;;;;;;;;;;;;;;;;;4987869;28;5056;-62
2023/01/17 15:27:13;;;;;;;;;;;;;;;;;;4988634;28;4755;-62
2023/01/17 15:29:39;;;;;;;;;;;;;;;;;;4985094;28;5181;-61
2023/01/17 15:32:04;;;;;;;;;;;;;;;;;;4985665;28;5132;-63
2023/01/17 15:34:31;;;;;;;;;;;;;;;;;;4982977;28;4943;-63
2023/01/17 15:36:57;;;;;;;;;;;;;;;;;;4989202;28;3281;-64
2023/01/17 15:39:24;;;;;;;;;;;;;;;;;;4983264;28;4471;-63
2023/01/17 15:41:52;;;;;;;;;;;;;;;;;;4982079;28;4965;-63
2023/01/17 15:44:22;;;;;;;;;;;;;;;;;;5002673;28;4879;-61
2023/01/17 15:46:47;;;;;;;;;;;;;;;;;;4982998;28;5204;-62
2023/01/17 15:49:17;;;;;;;;;;;;;;;;;;4987573;28;1640;-64
2023/01/17 15:51:52;;;;;;;;;;;;;;;;;;4988162;28;4650;-61
2023/01/17 15:54:36;;;;;;;;;;;;;;;;;;4988702;28;4545;-64
2023/01/17 15:57:04;;;;;;;;;;;;;;;;;;4989942;28;4632;-63
2023/01/17 15:59:36;;;;;;;;;;;;;;;;;;4985483;28;4967;-63
2023/01/17 16:02:01;;;;;;;;;;;;;;;;;;4986914;28;5008;-63
2023/01/17 16:04:27;;;;;;;;;;;;;;;;;;4988860;28;5163;-60
2023/01/17 16:06:52;;;;;;;;;;;;;;;;;;4985702;28;3343;-62
2023/01/17 16:09:18;;;;;;;;;;;;;;;;;;4989981;28;4661;-62
2023/01/17 16:11:44;;;;;;;;;;;;;;;;;;4983246;28;5156;-61
2023/01/17 16:14:09;;;;;;;;;;;;;;;;;;4983090;28;5117;-62
2023/01/17 16:16:34;;;;;;;;;;;;;;;;;;4977616;28;4553;-61
2023/01/17 16:19:00;;;;;;;;;;;;;;;;;;4987104;28;1296;-61
2023/01/17 16:21:26;;;;;;;;;;;;;;;;;;4989114;28;5016;-62
2023/01/17 16:23:51;;;;;;;;;;;;;;;;;;4986191;28;4560;-62
2023/01/17 16:26:16;;;;;;;;;;;;;;;;;;4988997;28;5135;-62
2023/01/17 16:28:42;;;;;;;;;;;;;;;;;;4984134;28;5176;-62
2023/01/17 16:31:07;;;;;;;;;;;;;;;;;;4985192;28;4297;-62
2023/01/17 16:33:32;;;;;;;;;;;;;;;;;;4985701;28;5072;-62
2023/01/17 16:35:57;;;;;;;;;;;;;;;;;;4983598;28;5137;-63
2023/01/17 16:38:23;;;;;;;;;;;;;;;;;;4986394;28;5192;-63
2023/01/17 16:40:48;;;;;;;;;;;;;;;;;;4985867;28;5063;-61
2023/01/17 16:43:14;;;;;;;;;;;;;;;;;;4983002;28;2004;-62
2023/01/17 16:45:39;;;;;;;;;;;;;;;;;;4987188;28;4590;-62
2023/01/17 16:48:05;;;;;;;;;;;;;;;;;;4980815;28;5018;-63
2023/01/17 16:50:30;;;;;;;;;;;;;;;;;;4981750;28;5018;-62
2023/01/17 16:52:55;;;;;;;;;;;;;;;;;;4981650;28;5071;-63
2023/01/17 16:55:21;;;;;;;;;;;;;;;;;;4988025;28;3274;-61
2023/01/17 16:57:50;;;;;;;;;;;;;;;;;;4981934;28;5159;-61
2023/01/17 17:00:15;;;;;;;;;;;;;;;;;;4984717;28;4510;-62
2023/01/17 17:02:40;;;;;;;;;;;;;;;;;;4978020;28;5059;-63
2023/01/17 17:05:06;;;;;;;;;;;;;;;;;;4984463;28;5009;-64
2023/01/17 17:07:33;;;;;;;;;;;;;;;;;;4975456;28;4532;-64
2023/01/17 17:09:59;;;;;;;;;;;;;;;;;;4973457;28;3535;-64
2023/01/17 17:12:24;;;;;;;;;;;;;;;;;;4985399;28;4545;-65
2023/01/17 17:14:49;;;;;;;;;;;;;;;;;;4978425;28;5147;-64
2023/01/17 17:17:14;;;;;;;;;;;;;;;;;;4978268;28;5115;-64
2023/01/17 17:19:40;;;;;;;;;;;;;;;;;;4984082;28;5132;-63
2023/01/17 17:22:05;;;;;;;;;;;;;;;;;;4986440;28;1154;-64
2023/01/17 17:24:30;;;;;;;;;;;;;;;;;;4984875;28;4578;-63
2023/01/17 17:26:55;;;;;;;;;;;;;;;;;;4987327;28;5079;-64
2023/01/17 17:29:21;;;;;;;;;;;;;;;;;;4982464;28;4702;-64
2023/01/17 17:31:46;;;;;;;;;;;;;;;;;;4977203;28;5091;-65
2023/01/17 17:34:12;;;;;;;;;;;;;;;;;;4987719;28;3411;-63
2023/01/17 17:36:37;;;;;;;;;;;;;;;;;;4982260;28;5196;-65
2023/01/17 17:39:03;;;;;;;;;;;;;;;;;;4984231;28;5131;-65
2023/01/17 17:41:32;;;;;;;;;;;;;;;;;;4980443;28;5117;-65
2023/01/17 17:43:58;;;;;;;;;;;;;;;;;;4980943;28;4497;-65
2023/01/17 17:46:24;;;;;;;;;;;;;;;;;;4977855;28;3465;-65
2023/01/17 17:48:49;;;;;;;;;;;;;;;;;;4983356;28;4432;-65
2023/01/17 17:51:21;;;;;;;;;;;;;;;;;;4986586;28;4379;-65
2023/01/17 17:53:46;;;;;;;;;;;;;;;;;;4982370;28;4463;-66
2023/01/17 17:56:11;;;;;;;;;;;;;;;;;;4986587;28;5269;-66
2023/01/17 17:58:38;;;;;;;;;;;;;;;;;;4988165;28;4686;-65
2023/01/17 18:01:03;;;;;;;;;;;;;;;;;;4987484;28;3550;-65
2023/01/17 18:03:29;;;;;;;;;;;;;;;;;;4983495;28;5008;-66
2023/01/17 18:05:59;;;;;;;;;;;;;;;;;;4982269;28;5113;-66
2023/01/17 18:08:24;;;;;;;;;;;;;;;;;;4986344;28;5099;-65
2023/01/17 18:10:50;;;;;;;;;;;;;;;;;;4986835;28;4992;-65
2023/01/17 18:13:15;;;;;;;;;;;;;;;;;;4989254;28;1189;-65
2023/01/17 18:15:40;;;;;;;;;;;;;;;;;;4988127;28;5206;-65
2023/01/17 18:18:05;;;;;;;;;;;;;;;;;;4988114;28;4609;-65
2023/01/17 18:20:31;;;;;;;;;;;;;;;;;;4982988;28;4763;-65
2023/01/17 18:22:56;;;;;;;;;;;;;;;;;;4983251;28;5358;-66
2023/01/17 18:25:21;;;;;;;;;;;;;;;;;;4983812;28;3579;-65
2023/01/17 18:27:46;;;;;;;;;;;;;;;;;;4984654;28;4381;-66
2023/01/17 18:30:12;;;;;;;;;;;;;;;;;;4978153;28;5161;-65
2023/01/17 18:32:37;;;;;;;;;;;;;;;;;;4982272;28;5541;-65
2023/01/17 18:35:03;;;;;;;;;;;;;;;;;;4973294;28;5172;-66
2023/01/17 18:37:28;;;;;;;;;;;;;;;;;;4981924;28;4818;-65